Mc Kenney, Virginia
Current Conditions -  °F | °C
As of 3:15 PM on Sunday 23 Nov 2014 (Local Time) from KBKT Reporting Station
Overcast Overcast  
Wind Chill: 54°   Ceiling: 3300
Heat Index: 54°   Visibility: 10mi
Dew Point: 45°   Wind: 3mph
Humidity: 72%   Direction: 70°ENE
Pressure: 30.08"   Gusts: NA
Location:  37.0016°N, 77.7543°W
Report Text: KBKT 232015Z AUTO 07003KT 10SM BKN033 OVC042 12/07 A3008 RMK AO1 T01230074
Loading
Personal Weather Stations






























Interactive Weather Map New forecast layout! Learn more

10-Day Weather Forecast

Advertisements
Track Severe Weather on mobile